sensor_id;sensor_type;location;lat;lon;timestamp;pressure;altitude;pressure_sealevel;temperature;humidity
27805;BME280;15183;51.350;11.102;2023-06-14T00:02:16;100029.91;;;19.59;36.57
27805;BME280;15183;51.350;11.102;2023-06-14T00:04:43;100033.03;;;19.72;36.55
27805;BME280;15183;51.350;11.102;2023-06-14T00:07:09;100025.44;;;19.79;36.88
27805;BME280;15183;51.350;11.102;2023-06-14T00:09:36;100026.19;;;19.85;36.92
27805;BME280;15183;51.350;11.102;2023-06-14T00:12:02;100029.69;;;19.90;36.87
27805;BME280;15183;51.350;11.102;2023-06-14T00:14:29;100029.09;;;19.93;36.70
27805;BME280;15183;51.350;11.102;2023-06-14T00:16:55;100003.06;;;19.84;36.28
27805;BME280;15183;51.350;11.102;2023-06-14T00:19:26;100024.81;;;19.92;36.91
27805;BME280;15183;51.350;11.102;2023-06-14T00:21:52;100024.00;;;19.92;36.87
27805;BME280;15183;51.350;11.102;2023-06-14T00:24:19;100023.72;;;19.88;37.04
27805;BME280;15183;51.350;11.102;2023-06-14T00:26:46;100021.44;;;19.76;37.18
27805;BME280;15183;51.350;11.102;2023-06-14T00:29:13;100026.59;;;19.67;36.82
27805;BME280;15183;51.350;11.102;2023-06-14T00:31:39;100025.88;;;19.57;36.89
27805;BME280;15183;51.350;11.102;2023-06-14T00:34:06;100035.06;;;19.50;37.44
27805;BME280;15183;51.350;11.102;2023-06-14T00:36:32;100032.50;;;19.35;37.70
27805;BME280;15183;51.350;11.102;2023-06-14T00:38:58;100034.47;;;19.24;37.66
27805;BME280;15183;51.350;11.102;2023-06-14T00:41:25;100036.13;;;19.15;37.42
27805;BME280;15183;51.350;11.102;2023-06-14T00:43:51;100040.19;;;19.07;37.73
27805;BME280;15183;51.350;11.102;2023-06-14T00:46:18;100042.59;;;19.08;37.67
27805;BME280;15183;51.350;11.102;2023-06-14T00:48:45;100034.28;;;19.10;37.75
27805;BME280;15183;51.350;11.102;2023-06-14T00:51:12;100038.25;;;19.13;38.08
27805;BME280;15183;51.350;11.102;2023-06-14T00:53:38;100036.13;;;19.15;37.95
27805;BME280;15183;51.350;11.102;2023-06-14T00:56:07;100043.31;;;19.24;37.60
27805;BME280;15183;51.350;11.102;2023-06-14T00:58:33;100022.66;;;19.20;37.30
27805;BME280;15183;51.350;11.102;2023-06-14T01:00:59;100041.66;;;19.29;37.80
27805;BME280;15183;51.350;11.102;2023-06-14T01:03:26;100045.69;;;19.31;37.97
27805;BME280;15183;51.350;11.102;2023-06-14T01:06:05;100035.75;;;19.27;37.96
27805;BME280;15183;51.350;11.102;2023-06-14T01:08:54;100039.50;;;19.36;37.48
27805;BME280;15183;51.350;11.102;2023-06-14T01:11:47;100050.78;;;19.33;37.57
27805;BME280;15183;51.350;11.102;2023-06-14T01:14:17;100057.78;;;19.34;37.62
27805;BME280;15183;51.350;11.102;2023-06-14T01:16:44;100056.44;;;19.31;37.94
27805;BME280;15183;51.350;11.102;2023-06-14T01:19:12;100049.72;;;19.29;37.90
27805;BME280;15183;51.350;11.102;2023-06-14T01:21:40;100037.94;;;19.24;37.49
27805;BME280;15183;51.350;11.102;2023-06-14T01:24:09;100057.22;;;19.32;37.80
27805;BME280;15183;51.350;11.102;2023-06-14T01:26:38;100055.91;;;19.29;37.89
27805;BME280;15183;51.350;11.102;2023-06-14T01:29:13;100057.25;;;19.27;37.73
27805;BME280;15183;51.350;11.102;2023-06-14T01:31:44;100042.25;;;19.20;37.72
27805;BME280;15183;51.350;11.102;2023-06-14T01:34:11;100056.22;;;19.22;38.13
27805;BME280;15183;51.350;11.102;2023-06-14T01:36:41;100050.56;;;19.24;38.31
27805;BME280;15183;51.350;11.102;2023-06-14T01:39:14;100040.44;;;19.16;38.44
27805;BME280;15183;51.350;11.102;2023-06-14T01:41:42;100049.81;;;19.13;38.04
27805;BME280;15183;51.350;11.102;2023-06-14T01:44:10;100055.19;;;19.13;38.35
27805;BME280;15183;51.350;11.102;2023-06-14T01:46:38;100061.09;;;19.15;38.22
27805;BME280;15183;51.350;11.102;2023-06-14T01:49:04;100034.34;;;19.00;38.07
27805;BME280;15183;51.350;11.102;2023-06-14T01:51:31;100044.75;;;19.06;38.01
27805;BME280;15183;51.350;11.102;2023-06-14T01:53:58;100050.94;;;19.07;38.42
27805;BME280;15183;51.350;11.102;2023-06-14T01:56:25;100053.59;;;19.12;38.47
27805;BME280;15183;51.350;11.102;2023-06-14T01:58:52;100043.44;;;19.04;37.98
27805;BME280;15183;51.350;11.102;2023-06-14T02:01:20;100057.41;;;19.06;38.31
27805;BME280;15183;51.350;11.102;2023-06-14T02:03:48;100044.25;;;18.94;38.61
27805;BME280;15183;51.350;11.102;2023-06-14T02:06:15;100056.06;;;18.93;38.60
27805;BME280;15183;51.350;11.102;2023-06-14T02:08:44;100064.13;;;18.98;38.29
27805;BME280;15183;51.350;11.102;2023-06-14T02:11:11;100045.41;;;18.83;38.17
27805;BME280;15183;51.350;11.102;2023-06-14T02:13:37;100064.94;;;18.88;38.79
27805;BME280;15183;51.350;11.102;2023-06-14T02:16:04;100061.75;;;18.81;38.81
27805;BME280;15183;51.350;11.102;2023-06-14T02:18:30;100062.06;;;18.79;38.91
27805;BME280;15183;51.350;11.102;2023-06-14T02:20:57;100060.19;;;18.75;38.57
27805;BME280;15183;51.350;11.102;2023-06-14T02:23:23;100062.06;;;18.69;38.44
27805;BME280;15183;51.350;11.102;2023-06-14T02:25:49;100067.19;;;18.71;38.80
27805;BME280;15183;51.350;11.102;2023-06-14T02:28:16;100063.47;;;18.61;39.10
27805;BME280;15183;51.350;11.102;2023-06-14T02:30:42;100076.34;;;18.59;39.32
27805;BME280;15183;51.350;11.102;2023-06-14T02:33:09;100071.25;;;18.58;39.02
27805;BME280;15183;51.350;11.102;2023-06-14T02:35:38;100072.59;;;18.55;39.08
27805;BME280;15183;51.350;11.102;2023-06-14T02:38:05;100080.13;;;18.58;39.35
27805;BME280;15183;51.350;11.102;2023-06-14T02:40:31;100072.06;;;18.53;38.94
27805;BME280;15183;51.350;11.102;2023-06-14T02:42:58;100073.13;;;18.52;38.86
27805;BME280;15183;51.350;11.102;2023-06-14T02:45:24;100076.91;;;18.56;39.30
27805;BME280;15183;51.350;11.102;2023-06-14T02:47:51;100070.19;;;18.54;39.48
27805;BME280;15183;51.350;11.102;2023-06-14T02:50:17;100079.84;;;18.55;39.01
27805;BME280;15183;51.350;11.102;2023-06-14T02:52:44;100082.25;;;18.61;39.77
27805;BME280;15183;51.350;11.102;2023-06-14T02:55:11;100077.13;;;18.65;39.24
27805;BME280;15183;51.350;11.102;2023-06-14T02:57:38;100085.94;;;18.76;39.56
27805;BME280;15183;51.350;11.102;2023-06-14T03:00:05;100085.94;;;18.81;39.74
27805;BME280;15183;51.350;11.102;2023-06-14T03:02:35;100086.72;;;18.87;39.32
27805;BME280;15183;51.350;11.102;2023-06-14T03:05:02;100079.75;;;18.86;39.18
27805;BME280;15183;51.350;11.102;2023-06-14T03:07:28;100091.25;;;19.02;39.71
27805;BME280;15183;51.350;11.102;2023-06-14T03:09:55;100084.28;;;19.01;39.70
27805;BME280;15183;51.350;11.102;2023-06-14T03:12:22;100072.72;;;19.00;39.14
27805;BME280;15183;51.350;11.102;2023-06-14T03:14:49;100084.75;;;19.13;39.74
27805;BME280;15183;51.350;11.102;2023-06-14T03:17:17;100084.16;;;19.21;39.37
27805;BME280;15183;51.350;11.102;2023-06-14T03:19:45;100082.22;;;19.32;39.88
27805;BME280;15183;51.350;11.102;2023-06-14T03:22:12;100097.75;;;19.41;39.24
27805;BME280;15183;51.350;11.102;2023-06-14T03:24:38;100098.75;;;19.50;39.70
27805;BME280;15183;51.350;11.102;2023-06-14T03:27:05;100101.91;;;19.62;39.54
27805;BME280;15183;51.350;11.102;2023-06-14T03:29:32;100105.03;;;19.75;39.48
27805;BME280;15183;51.350;11.102;2023-06-14T03:32:03;100104.69;;;19.87;39.48
27805;BME280;15183;51.350;11.102;2023-06-14T03:34:29;100111.28;;;20.05;39.67
27805;BME280;15183;51.350;11.102;2023-06-14T03:36:56;100108.72;;;20.24;39.46
27805;BME280;15183;51.350;11.102;2023-06-14T03:39:22;100105.63;;;20.36;39.40
27805;BME280;15183;51.350;11.102;2023-06-14T03:41:49;100100.38;;;20.50;39.18
27805;BME280;15183;51.350;11.102;2023-06-14T03:44:19;100108.28;;;20.65;38.89
27805;BME280;15183;51.350;11.102;2023-06-14T03:46:46;100118.03;;;20.86;38.57
27805;BME280;15183;51.350;11.102;2023-06-14T03:49:13;100115.16;;;21.01;39.02
27805;BME280;15183;51.350;11.102;2023-06-14T03:51:39;100120.13;;;21.13;38.56
27805;BME280;15183;51.350;11.102;2023-06-14T03:54:06;100121.44;;;21.16;38.52
27805;BME280;15183;51.350;11.102;2023-06-14T03:56:33;100120.00;;;21.23;38.14
27805;BME280;15183;51.350;11.102;2023-06-14T03:58:59;100124.59;;;21.42;38.02
27805;BME280;15183;51.350;11.102;2023-06-14T04:01:26;100124.16;;;21.54;38.41
27805;BME280;15183;51.350;11.102;2023-06-14T04:03:56;100128.75;;;21.73;37.95
27805;BME280;15183;51.350;11.102;2023-06-14T04:06:24;100121.72;;;21.91;38.00
27805;BME280;15183;51.350;11.102;2023-06-14T04:08:51;100125.59;;;22.18;37.46
27805;BME280;15183;51.350;11.102;2023-06-14T04:11:18;100132.38;;;22.48;37.69
27805;BME280;15183;51.350;11.102;2023-06-14T04:13:44;100136.59;;;22.68;37.49
27805;BME280;15183;51.350;11.102;2023-06-14T04:16:11;100126.50;;;22.88;37.32
27805;BME280;15183;51.350;11.102;2023-06-14T04:18:37;100124.56;;;23.03;37.28
27805;BME280;15183;51.350;11.102;2023-06-14T04:21:04;100138.06;;;23.31;36.70
27805;BME280;15183;51.350;11.102;2023-06-14T04:23:30;100126.91;;;23.46;36.29
27805;BME280;15183;51.350;11.102;2023-06-14T04:25:57;100135.06;;;23.69;36.47
27805;BME280;15183;51.350;11.102;2023-06-14T04:28:28;100126.38;;;23.81;36.64
27805;BME280;15183;51.350;11.102;2023-06-14T04:30:55;100139.63;;;24.05;36.31
27805;BME280;15183;51.350;11.102;2023-06-14T04:33:21;100140.03;;;24.21;35.70
27805;BME280;15183;51.350;11.102;2023-06-14T04:35:49;100147.59;;;24.33;35.31
27805;BME280;15183;51.350;11.102;2023-06-14T04:38:20;100149.25;;;24.52;35.68
27805;BME280;15183;51.350;11.102;2023-06-14T04:40:50;100152.34;;;24.68;35.67
27805;BME280;15183;51.350;11.102;2023-06-14T04:43:19;100163.59;;;24.84;35.01
27805;BME280;15183;51.350;11.102;2023-06-14T04:45:52;100162.03;;;24.92;34.77
27805;BME280;15183;51.350;11.102;2023-06-14T04:48:21;100163.34;;;25.03;35.03
27805;BME280;15183;51.350;11.102;2023-06-14T04:50:48;100158.88;;;25.07;34.87
27805;BME280;15183;51.350;11.102;2023-06-14T04:53:20;100153.16;;;25.09;34.87
27805;BME280;15183;51.350;11.102;2023-06-14T04:55:49;100170.72;;;25.20;34.39
27805;BME280;15183;51.350;11.102;2023-06-14T04:58:16;100161.13;;;25.14;34.10
27805;BME280;15183;51.350;11.102;2023-06-14T05:00:43;100172.13;;;25.18;33.91
27805;BME280;15183;51.350;11.102;2023-06-14T05:03:09;100169.28;;;25.14;34.16
27805;BME280;15183;51.350;11.102;2023-06-14T05:05:42;100167.50;;;25.09;33.82
27805;BME280;15183;51.350;11.102;2023-06-14T05:08:08;100161.75;;;25.02;34.23
27805;BME280;15183;51.350;11.102;2023-06-14T05:10:35;100167.47;;;24.92;34.27
27805;BME280;15183;51.350;11.102;2023-06-14T05:13:02;100159.75;;;24.76;33.98
27805;BME280;15183;51.350;11.102;2023-06-14T05:15:29;100159.81;;;24.62;34.39
27805;BME280;15183;51.350;11.102;2023-06-14T05:17:55;100159.78;;;24.53;34.07
27805;BME280;15183;51.350;11.102;2023-06-14T05:20:23;100150.44;;;24.28;34.19
27805;BME280;15183;51.350;11.102;2023-06-14T05:22:53;100157.03;;;24.13;34.83
27805;BME280;15183;51.350;11.102;2023-06-14T05:25:20;100159.06;;;24.07;34.87
27805;BME280;15183;51.350;11.102;2023-06-14T05:27:47;100153.06;;;23.96;35.09
27805;BME280;15183;51.350;11.102;2023-06-14T05:30:15;100177.63;;;24.00;35.24
27805;BME280;15183;51.350;11.102;2023-06-14T05:32:41;100169.63;;;23.95;35.27
27805;BME280;15183;51.350;11.102;2023-06-14T05:35:08;100172.50;;;23.98;35.47
27805;BME280;15183;51.350;11.102;2023-06-14T05:37:35;100176.28;;;24.11;35.38
27805;BME280;15183;51.350;11.102;2023-06-14T05:40:02;100154.81;;;24.15;34.98
27805;BME280;15183;51.350;11.102;2023-06-14T05:42:32;100175.94;;;24.36;35.55
27805;BME280;15183;51.350;11.102;2023-06-14T05:44:58;100170.78;;;24.48;35.37
27805;BME280;15183;51.350;11.102;2023-06-14T05:47:25;100176.13;;;24.71;35.33
27805;BME280;15183;51.350;11.102;2023-06-14T05:49:53;100160.09;;;24.83;34.66
27805;BME280;15183;51.350;11.102;2023-06-14T05:52:21;100154.06;;;24.87;34.79
27805;BME280;15183;51.350;11.102;2023-06-14T05:54:48;100175.13;;;24.98;34.85
27805;BME280;15183;51.350;11.102;2023-06-14T05:57:14;100176.72;;;24.99;34.75
27805;BME280;15183;51.350;11.102;2023-06-14T05:59:40;100178.19;;;25.06;34.17
27805;BME280;15183;51.350;11.102;2023-06-14T06:02:07;100169.56;;;25.12;34.29
27805;BME280;15183;51.350;11.102;2023-06-14T06:04:33;100172.94;;;25.18;34.43
27805;BME280;15183;51.350;11.102;2023-06-14T06:07:00;100183.31;;;25.34;34.22
27805;BME280;15183;51.350;11.102;2023-06-14T06:09:26;100185.41;;;25.28;34.62
27805;BME280;15183;51.350;11.102;2023-06-14T06:11:53;100185.91;;;25.39;33.87
27805;BME280;15183;51.350;11.102;2023-06-14T06:14:19;100198.88;;;25.60;33.99
27805;BME280;15183;51.350;11.102;2023-06-14T06:16:46;100192.81;;;25.80;34.21
27805;BME280;15183;51.350;11.102;2023-06-14T06:19:12;100197.28;;;25.94;34.01
27805;BME280;15183;51.350;11.102;2023-06-14T06:21:39;100190.56;;;26.09;33.83
27805;BME280;15183;51.350;11.102;2023-06-14T06:24:05;100203.63;;;26.33;33.11
27805;BME280;15183;51.350;11.102;2023-06-14T06:26:32;100207.09;;;26.51;33.22
27805;BME280;15183;51.350;11.102;2023-06-14T06:28:59;100195.28;;;26.56;33.10
27805;BME280;15183;51.350;11.102;2023-06-14T06:31:25;100196.97;;;26.69;32.49
27805;BME280;15183;51.350;11.102;2023-06-14T06:33:54;100194.72;;;26.71;32.59
27805;BME280;15183;51.350;11.102;2023-06-14T06:36:21;100200.28;;;26.84;32.65
27805;BME280;15183;51.350;11.102;2023-06-14T06:38:48;100198.63;;;27.00;32.75
27805;BME280;15183;51.350;11.102;2023-06-14T06:41:14;100200.28;;;27.14;32.61
27805;BME280;15183;51.350;11.102;2023-06-14T06:43:41;100206.66;;;27.18;32.36
27805;BME280;15183;51.350;11.102;2023-06-14T06:46:07;100210.03;;;27.15;31.90
27805;BME280;15183;51.350;11.102;2023-06-14T06:48:34;100198.75;;;27.04;31.84
27805;BME280;15183;51.350;11.102;2023-06-14T06:51:00;100213.84;;;27.23;32.04
27805;BME280;15183;51.350;11.102;2023-06-14T06:53:27;100205.03;;;27.26;31.86
27805;BME280;15183;51.350;11.102;2023-06-14T06:55:53;100221.63;;;27.33;31.38
27805;BME280;15183;51.350;11.102;2023-06-14T06:58:20;100218.84;;;27.42;31.71
27805;BME280;15183;51.350;11.102;2023-06-14T07:00:48;100229.53;;;27.47;31.15
27805;BME280;15183;51.350;11.102;2023-06-14T07:03:14;100227.34;;;27.40;31.65
27805;BME280;15183;51.350;11.102;2023-06-14T07:05:41;100221.81;;;27.28;31.32
27805;BME280;15183;51.350;11.102;2023-06-14T07:08:07;100210.50;;;27.17;31.77
27805;BME280;15183;51.350;11.102;2023-06-14T07:10:34;100207.31;;;27.15;31.54
27805;BME280;15183;51.350;11.102;2023-06-14T07:13:00;100222.75;;;27.32;31.31
27805;BME280;15183;51.350;11.102;2023-06-14T07:15:27;100226.28;;;27.33;31.48
27805;BME280;15183;51.350;11.102;2023-06-14T07:17:53;100213.69;;;27.19;31.56
27805;BME280;15183;51.350;11.102;2023-06-14T07:20:20;100222.88;;;27.14;31.37
27805;BME280;15183;51.350;11.102;2023-06-14T07:22:47;100218.78;;;26.99;30.97
27805;BME280;15183;51.350;11.102;2023-06-14T07:25:14;100227.44;;;26.93;31.08
27805;BME280;15183;51.350;11.102;2023-06-14T07:27:45;100226.50;;;26.89;31.61
27805;BME280;15183;51.350;11.102;2023-06-14T07:30:12;100218.03;;;26.90;31.53
27805;BME280;15183;51.350;11.102;2023-06-14T07:32:39;100217.84;;;26.95;31.14
27805;BME280;15183;51.350;11.102;2023-06-14T07:35:07;100216.38;;;26.98;31.17
27805;BME280;15183;51.350;11.102;2023-06-14T07:37:33;100212.59;;;26.90;30.92
27805;BME280;15183;51.350;11.102;2023-06-14T07:40:00;100223.75;;;26.97;31.25
27805;BME280;15183;51.350;11.102;2023-06-14T07:42:26;100216.72;;;26.96;31.15
27805;BME280;15183;51.350;11.102;2023-06-14T07:44:52;100219.06;;;27.07;31.63
27805;BME280;15183;51.350;11.102;2023-06-14T07:47:20;100218.41;;;27.10;31.20
27805;BME280;15183;51.350;11.102;2023-06-14T07:49:46;100222.31;;;27.21;30.96
27805;BME280;15183;51.350;11.102;2023-06-14T07:52:13;100220.94;;;27.15;31.14
27805;BME280;15183;51.350;11.102;2023-06-14T07:54:39;100206.75;;;27.09;30.66
27805;BME280;15183;51.350;11.102;2023-06-14T07:57:07;100225.13;;;27.12;30.79
27805;BME280;15183;51.350;11.102;2023-06-14T07:59:33;100236.97;;;27.08;31.08
27805;BME280;15183;51.350;11.102;2023-06-14T08:01:59;100230.44;;;27.00;30.76
27805;BME280;15183;51.350;11.102;2023-06-14T08:04:26;100230.97;;;26.93;30.60
27805;BME280;15183;51.350;11.102;2023-06-14T08:06:52;100237.69;;;26.87;30.89
27805;BME280;15183;51.350;11.102;2023-06-14T08:09:19;100238.50;;;26.79;31.34
27805;BME280;15183;51.350;11.102;2023-06-14T08:11:45;100224.94;;;26.70;30.58
27805;BME280;15183;51.350;11.102;2023-06-14T08:14:12;100225.75;;;26.62;30.72
27805;BME280;15183;51.350;11.102;2023-06-14T08:16:38;100224.81;;;26.66;31.47
27805;BME280;15183;51.350;11.102;2023-06-14T08:19:05;100224.94;;;26.70;31.19
27805;BME280;15183;51.350;11.102;2023-06-14T08:21:31;100214.25;;;26.65;30.95
27805;BME280;15183;51.350;11.102;2023-06-14T08:23:59;100218.53;;;26.75;31.09
27805;BME280;15183;51.350;11.102;2023-06-14T08:26:26;100229.69;;;26.91;30.80
27805;BME280;15183;51.350;11.102;2023-06-14T08:28:56;100221.78;;;27.07;30.88
27805;BME280;15183;51.350;11.102;2023-06-14T08:31:23;100219.94;;;27.20;30.55
27805;BME280;15183;51.350;11.102;2023-06-14T08:33:50;100231.53;;;27.38;30.45
27805;BME280;15183;51.350;11.102;2023-06-14T08:36:17;100241.38;;;27.51;30.66
27805;BME280;15183;51.350;11.102;2023-06-14T08:38:43;100229.06;;;27.54;30.13
27805;BME280;15183;51.350;11.102;2023-06-14T08:41:12;100222.34;;;27.51;30.18
27805;BME280;15183;51.350;11.102;2023-06-14T08:43:39;100216.88;;;27.51;30.30
27805;BME280;15183;51.350;11.102;2023-06-14T08:46:06;100212.56;;;27.50;29.45
27805;BME280;15183;51.350;11.102;2023-06-14T08:48:34;100216.25;;;27.45;29.26
27805;BME280;15183;51.350;11.102;2023-06-14T08:51:01;100221.56;;;27.51;29.15
27805;BME280;15183;51.350;11.102;2023-06-14T08:53:33;100225.88;;;27.52;28.98
27805;BME280;15183;51.350;11.102;2023-06-14T08:56:00;100227.56;;;27.56;28.97
27805;BME280;15183;51.350;11.102;2023-06-14T08:58:31;100232.25;;;27.56;28.18
27805;BME280;15183;51.350;11.102;2023-06-14T09:01:03;100241.25;;;27.48;28.56
27805;BME280;15183;51.350;11.102;2023-06-14T09:03:31;100241.81;;;27.32;28.49
27805;BME280;15183;51.350;11.102;2023-06-14T09:05:59;100239.97;;;27.15;28.62
27805;BME280;15183;51.350;11.102;2023-06-14T09:08:26;100238.88;;;27.07;29.15
27805;BME280;15183;51.350;11.102;2023-06-14T09:10:57;100235.56;;;27.01;29.31
27805;BME280;15183;51.350;11.102;2023-06-14T09:13:23;100226.75;;;27.05;29.17
27805;BME280;15183;51.350;11.102;2023-06-14T09:15:50;100237.03;;;27.29;29.56
27805;BME280;15183;51.350;11.102;2023-06-14T09:18:17;100240.16;;;27.40;29.43
27805;BME280;15183;51.350;11.102;2023-06-14T09:20:44;100245.97;;;27.59;29.46
27805;BME280;15183;51.350;11.102;2023-06-14T09:23:10;100230.75;;;27.80;28.76
27805;BME280;15183;51.350;11.102;2023-06-14T09:25:45;100230.28;;;27.99;28.38
27805;BME280;15183;51.350;11.102;2023-06-14T09:28:11;100233.38;;;28.10;28.27
27805;BME280;15183;51.350;11.102;2023-06-14T09:30:38;100238.44;;;28.20;28.15
27805;BME280;15183;51.350;11.102;2023-06-14T09:33:05;100234.72;;;28.25;27.78
27805;BME280;15183;51.350;11.102;2023-06-14T09:35:32;100232.22;;;28.20;27.55
27805;BME280;15183;51.350;11.102;2023-06-14T09:38:00;100238.81;;;28.31;27.78
27805;BME280;15183;51.350;11.102;2023-06-14T09:40:27;100236.00;;;28.40;27.57
27805;BME280;15183;51.350;11.102;2023-06-14T09:42:53;100233.75;;;28.54;27.53
27805;BME280;15183;51.350;11.102;2023-06-14T09:45:21;100228.66;;;28.65;27.74
27805;BME280;15183;51.350;11.102;2023-06-14T09:47:51;100239.59;;;28.78;27.21
27805;BME280;15183;51.350;11.102;2023-06-14T09:50:18;100233.22;;;28.73;27.51
27805;BME280;15183;51.350;11.102;2023-06-14T09:52:44;100241.69;;;28.81;26.77
27805;BME280;15183;51.350;11.102;2023-06-14T09:55:14;100223.56;;;28.64;26.59
27805;BME280;15183;51.350;11.102;2023-06-14T09:57:45;100225.25;;;28.43;27.43
27805;BME280;15183;51.350;11.102;2023-06-14T10:00:15;100233.63;;;28.38;27.48
27805;BME280;15183;51.350;11.102;2023-06-14T10:02:53;100234.25;;;28.23;27.18
27805;BME280;15183;51.350;11.102;2023-06-14T10:05:20;100245.84;;;27.98;27.89
27805;BME280;15183;51.350;11.102;2023-06-14T10:07:51;100234.28;;;27.80;27.54
27805;BME280;15183;51.350;11.102;2023-06-14T10:10:19;100246.13;;;27.63;27.44
27805;BME280;15183;51.350;11.102;2023-06-14T10:12:46;100245.59;;;27.40;27.60
27805;BME280;15183;51.350;11.102;2023-06-14T10:15:21;100238.97;;;27.28;28.17
27805;BME280;15183;51.350;11.102;2023-06-14T10:18:07;100237.22;;;27.24;28.44
27805;BME280;15183;51.350;11.102;2023-06-14T10:23:23;100218.88;;;27.63;28.32
27805;BME280;15183;51.350;11.102;2023-06-14T10:25:53;100218.34;;;27.91;27.78
27805;BME280;15183;51.350;11.102;2023-06-14T10:28:21;100222.78;;;28.17;28.05
27805;BME280;15183;51.350;11.102;2023-06-14T10:31:06;100224.53;;;28.34;27.28
27805;BME280;15183;51.350;11.102;2023-06-14T10:36:30;100213.78;;;28.50;27.04
27805;BME280;15183;51.350;11.102;2023-06-14T10:39:24;100216.19;;;28.64;27.41
27805;BME280;15183;51.350;11.102;2023-06-14T10:41:55;100215.63;;;28.71;26.55
27805;BME280;15183;51.350;11.102;2023-06-14T10:46:49;100215.13;;;28.56;26.90
27805;BME280;15183;51.350;11.102;2023-06-14T10:52:12;100207.53;;;28.74;26.71
27805;BME280;15183;51.350;11.102;2023-06-14T10:55:11;100209.88;;;28.85;26.57
27805;BME280;15183;51.350;11.102;2023-06-14T10:57:43;100199.72;;;28.73;26.09
27805;BME280;15183;51.350;11.102;2023-06-14T11:00:13;100203.13;;;28.70;26.61
27805;BME280;15183;51.350;11.102;2023-06-14T11:03:36;100197.53;;;28.54;26.22
27805;BME280;15183;51.350;11.102;2023-06-14T11:06:14;100199.59;;;28.44;26.57
27805;BME280;15183;51.350;11.102;2023-06-14T11:09:10;100191.72;;;28.30;26.05
27805;BME280;15183;51.350;11.102;2023-06-14T11:11:43;100194.66;;;28.25;25.87
27805;BME280;15183;51.350;11.102;2023-06-14T11:14:10;100176.63;;;28.12;26.38
27805;BME280;15183;51.350;11.102;2023-06-14T11:16:37;100184.31;;;28.31;26.04
27805;BME280;15183;51.350;11.102;2023-06-14T11:19:03;100190.50;;;28.53;26.18
27805;BME280;15183;51.350;11.102;2023-06-14T11:21:32;100176.41;;;28.63;26.44
27805;BME280;15183;51.350;11.102;2023-06-14T11:23:59;100187.00;;;28.77;26.48
27805;BME280;15183;51.350;11.102;2023-06-14T11:26:30;100175.75;;;28.79;26.23
27805;BME280;15183;51.350;11.102;2023-06-14T11:28:59;100165.03;;;28.73;25.98
27805;BME280;15183;51.350;11.102;2023-06-14T11:31:27;100166.47;;;28.80;25.76
27805;BME280;15183;51.350;11.102;2023-06-14T11:33:55;100183.22;;;28.69;25.52
27805;BME280;15183;51.350;11.102;2023-06-14T11:36:28;100182.78;;;28.67;26.04
27805;BME280;15183;51.350;11.102;2023-06-14T11:39:04;100179.88;;;28.85;25.99
27805;BME280;15183;51.350;11.102;2023-06-14T11:41:37;100173.69;;;29.00;26.19
27805;BME280;15183;51.350;11.102;2023-06-14T11:44:06;100171.09;;;29.04;26.09
27805;BME280;15183;51.350;11.102;2023-06-14T11:46:34;100173.69;;;29.00;25.39
27805;BME280;15183;51.350;11.102;2023-06-14T11:49:02;100172.81;;;28.84;26.19
27805;BME280;15183;51.350;11.102;2023-06-14T11:51:34;100171.53;;;28.69;26.16
27805;BME280;15183;51.350;11.102;2023-06-14T11:54:02;100174.50;;;28.64;25.97
27805;BME280;15183;51.350;11.102;2023-06-14T11:56:31;100170.38;;;28.57;25.81
27805;BME280;15183;51.350;11.102;2023-06-14T11:58:58;100168.69;;;28.53;26.23
27805;BME280;15183;51.350;11.102;2023-06-14T12:01:24;100192.09;;;28.54;26.03
27805;BME280;15183;51.350;11.102;2023-06-14T12:03:54;100171.63;;;28.48;26.10
27805;BME280;15183;51.350;11.102;2023-06-14T12:06:29;100165.06;;;28.49;26.54
27805;BME280;15183;51.350;11.102;2023-06-14T12:08:59;100159.28;;;28.63;26.26
27805;BME280;15183;51.350;11.102;2023-06-14T12:11:35;100162.44;;;28.77;25.74
27805;BME280;15183;51.350;11.102;2023-06-14T12:14:08;100157.31;;;28.75;26.46
27805;BME280;15183;51.350;11.102;2023-06-14T12:16:38;100179.75;;;28.81;25.73
27805;BME280;15183;51.350;11.102;2023-06-14T12:19:17;100170.94;;;28.75;25.66
27805;BME280;15183;51.350;11.102;2023-06-14T12:21:46;100167.56;;;28.79;25.93
27805;BME280;15183;51.350;11.102;2023-06-14T12:24:17;100164.97;;;28.82;25.83
27805;BME280;15183;51.350;11.102;2023-06-14T12:26:43;100181.66;;;28.93;26.47
27805;BME280;15183;51.350;11.102;2023-06-14T12:29:10;100176.44;;;29.00;25.82
27805;BME280;15183;51.350;11.102;2023-06-14T12:31:38;100179.38;;;29.08;26.31
27805;BME280;15183;51.350;11.102;2023-06-14T12:34:04;100184.81;;;29.08;26.67
27805;BME280;15183;51.350;11.102;2023-06-14T12:36:31;100185.97;;;29.07;26.19
27805;BME280;15183;51.350;11.102;2023-06-14T12:38:58;100163.47;;;28.97;26.47
27805;BME280;15183;51.350;11.102;2023-06-14T12:41:24;100183.13;;;29.15;26.71
27805;BME280;15183;51.350;11.102;2023-06-14T12:43:52;100173.91;;;29.20;26.63
27805;BME280;15183;51.350;11.102;2023-06-14T12:46:19;100186.41;;;29.21;26.11
27805;BME280;15183;51.350;11.102;2023-06-14T12:48:45;100172.53;;;29.14;26.00
27805;BME280;15183;51.350;11.102;2023-06-14T12:51:11;100182.78;;;29.17;26.67
27805;BME280;15183;51.350;11.102;2023-06-14T12:53:38;100175.75;;;29.03;26.49
27805;BME280;15183;51.350;11.102;2023-06-14T12:56:04;100174.38;;;28.97;26.86
27805;BME280;15183;51.350;11.102;2023-06-14T12:58:31;100185.31;;;28.97;26.93